createdAt,value
2023-03-24T01:00:31.311Z,5.05
2023-03-24T01:08:31.115Z,4.65
2023-03-24T01:16:30.980Z,4.21
2023-03-24T01:24:30.842Z,4.39
2023-03-24T01:32:30.759Z,4.30
2023-03-24T01:40:30.728Z,5.06
2023-03-24T01:48:30.691Z,4.53
2023-03-24T01:56:30.831Z,4.01
2023-03-24T02:04:30.910Z,4.58
2023-03-24T02:12:30.940Z,4.17
2023-03-24T02:20:31.217Z,4.31
2023-03-24T02:28:31.405Z,4.77
2023-03-24T02:36:31.476Z,4.68
2023-03-24T02:44:31.362Z,4.53
2023-03-24T02:52:31.240Z,3.80
2023-03-24T03:00:31.146Z,4.58
2023-03-24T03:04:32.140Z,3.96
2023-03-24T03:12:31.251Z,4.85
2023-03-24T03:20:31.444Z,4.22
2023-03-24T03:28:31.576Z,4.72
2023-03-24T03:36:31.525Z,3.91
2023-03-24T03:44:31.371Z,3.90
2023-03-24T03:48:32.342Z,3.82
2023-03-24T03:52:32.315Z,3.91
2023-03-24T03:56:32.293Z,4.27
2023-03-24T04:00:32.255Z,4.52
2023-03-24T04:04:32.231Z,3.91
2023-03-24T04:08:32.273Z,4.21
2023-03-24T04:12:32.200Z,4.25
2023-03-24T04:16:32.210Z,3.84
2023-03-24T04:20:32.136Z,4.29
2023-03-24T04:24:32.063Z,4.07
2023-03-24T04:28:32.002Z,4.12
2023-03-24T04:32:32.048Z,3.62
2023-03-24T04:36:32.119Z,4.24
2023-03-24T04:40:32.185Z,4.41
2023-03-24T04:44:32.303Z,4.35
2023-03-24T04:48:32.194Z,3.40
2023-03-24T04:52:32.101Z,4.16
2023-03-24T04:56:32.033Z,3.70
2023-03-24T05:00:31.896Z,3.65
2023-03-24T05:04:31.775Z,4.14
2023-03-24T05:08:31.668Z,4.01
2023-03-24T05:12:31.815Z,4.42
2023-03-24T05:16:31.791Z,4.13
2023-03-24T05:20:31.586Z,3.66
2023-03-24T05:24:31.493Z,3.99
2023-03-24T05:28:31.466Z,3.65
2023-03-24T05:32:31.403Z,4.09
2023-03-24T05:36:31.284Z,3.38
2023-03-24T05:40:31.334Z,3.61
2023-03-24T05:44:31.519Z,3.51
2023-03-24T05:48:31.658Z,4.29
2023-03-24T05:52:31.783Z,3.63
2023-03-24T05:56:31.982Z,3.54
2023-03-24T06:00:32.107Z,3.37
2023-03-24T06:04:32.832Z,3.72
2023-03-24T06:08:32.381Z,4.04
2023-03-24T06:12:32.720Z,3.56
2023-03-24T06:16:32.811Z,4.39
2023-03-24T06:20:33.223Z,4.33
2023-03-24T06:24:33.221Z,4.11
2023-03-24T06:28:33.221Z,4.59
2023-03-24T06:32:32.827Z,5.08
2023-03-24T06:36:32.730Z,6.09
2023-03-24T06:40:32.730Z,4.94
2023-03-24T06:44:32.738Z,5.99
2023-03-24T06:48:32.906Z,5.03
2023-03-24T06:52:32.750Z,6.22
2023-03-24T06:56:32.766Z,6.32
2023-03-24T07:00:32.240Z,6.04
2023-03-24T07:04:32.056Z,6.54
2023-03-24T07:08:38.085Z,7.68
2023-03-24T07:12:32.261Z,8.36
2023-03-24T07:16:31.874Z,7.85
2023-03-24T07:20:31.775Z,8.44
2023-03-24T07:24:31.997Z,8.58
2023-03-24T07:28:31.795Z,7.72
2023-03-24T07:32:31.252Z,8.29
2023-03-24T07:36:31.784Z,8.14
2023-03-24T07:40:31.782Z,7.47
2023-03-24T07:44:31.753Z,8.15
2023-03-24T07:48:31.761Z,9.47
2023-03-24T07:52:31.811Z,9.91
2023-03-24T07:56:31.833Z,9.69
2023-03-24T08:00:31.761Z,8.70
2023-03-24T08:04:31.784Z,9.70
2023-03-24T08:08:31.804Z,9.30
2023-03-24T08:12:31.944Z,10.18
2023-03-24T08:16:31.303Z,23.03
2023-03-24T08:20:31.299Z,32.41
2023-03-24T08:24:31.553Z,26.50
2023-03-24T08:28:31.297Z,20.82
2023-03-24T08:32:30.880Z,18.49
2023-03-24T08:36:30.801Z,17.14
2023-03-24T08:40:30.674Z,13.54
2023-03-24T08:44:32.920Z,13.91
2023-03-24T08:48:31.016Z,13.45
2023-03-24T08:52:30.805Z,12.36
2023-03-24T08:56:30.308Z,11.12
2023-03-24T09:00:30.307Z,10.33
2023-03-24T09:04:30.310Z,9.57
2023-03-24T09:08:30.275Z,9.11
2023-03-24T09:12:30.303Z,9.31
2023-03-24T09:16:30.660Z,8.12
2023-03-24T09:20:30.295Z,7.99
2023-03-24T09:24:30.285Z,7.11
2023-03-24T09:28:31.003Z,6.73
2023-03-24T09:32:30.502Z,7.41
2023-03-24T09:36:31.165Z,6.29
2023-03-24T09:40:30.292Z,5.74
2023-03-24T09:44:31.140Z,6.12
2023-03-24T09:48:30.298Z,5.98
2023-03-24T09:52:29.809Z,5.26
2023-03-24T09:56:29.863Z,5.82
2023-03-24T10:00:29.850Z,5.60
2023-03-24T10:04:29.797Z,5.82
2023-03-24T10:08:30.794Z,6.22
2023-03-24T10:12:29.805Z,5.83
2023-03-24T10:16:29.070Z,6.40
2023-03-24T10:20:28.838Z,5.56
2023-03-24T10:24:28.839Z,6.10
2023-03-24T10:28:28.841Z,5.97
2023-03-24T10:32:28.861Z,6.91
2023-03-24T10:36:28.314Z,6.50
2023-03-24T10:40:28.320Z,6.68
2023-03-24T10:44:28.321Z,6.15
2023-03-24T10:48:27.843Z,6.42
2023-03-24T10:52:27.823Z,7.08
2023-03-24T10:56:27.597Z,6.15
2023-03-24T11:00:27.825Z,7.07
2023-03-24T11:04:27.857Z,7.30
2023-03-24T11:08:27.346Z,6.56
2023-03-24T11:12:27.330Z,6.02
2023-03-24T11:16:27.295Z,7.35
2023-03-24T11:20:27.854Z,8.37
2023-03-24T11:24:27.826Z,6.90
2023-03-24T11:28:27.829Z,7.24
2023-03-24T11:32:28.003Z,6.63
2023-03-24T11:36:28.372Z,7.57
2023-03-24T11:40:28.373Z,7.22
2023-03-24T11:44:27.922Z,8.64
2023-03-24T11:48:27.835Z,6.81
2023-03-24T11:52:27.890Z,8.33
2023-03-24T11:56:27.918Z,7.72
2023-03-24T12:00:29.635Z,7.22
2023-03-24T12:04:27.906Z,7.50
2023-03-24T12:08:27.379Z,7.66
2023-03-24T12:12:27.897Z,8.32
2023-03-24T12:16:27.513Z,8.29
2023-03-24T12:20:28.380Z,9.18
2023-03-24T12:24:27.379Z,8.96
2023-03-24T12:28:27.061Z,8.37
2023-03-24T12:32:26.960Z,8.98
2023-03-24T12:36:27.122Z,7.84
2023-03-24T12:40:27.977Z,9.14
2023-03-24T12:44:26.856Z,9.30
2023-03-24T12:48:27.959Z,8.34
2023-03-24T12:52:27.172Z,10.74
2023-03-24T12:56:27.449Z,10.55
2023-03-24T13:00:27.415Z,10.46
2023-03-24T13:04:27.206Z,8.73
2023-03-24T13:08:28.330Z,8.59
2023-03-24T13:12:27.959Z,7.84
2023-03-24T13:16:26.971Z,7.98
2023-03-24T13:20:28.172Z,6.63
2023-03-24T13:24:27.872Z,6.87
2023-03-24T13:28:27.236Z,6.77
2023-03-24T13:32:28.449Z,6.84
2023-03-24T13:36:26.514Z,7.33
2023-03-24T13:40:26.547Z,6.52
2023-03-24T13:44:26.511Z,6.90
2023-03-24T13:48:26.112Z,5.59
2023-03-24T13:52:27.583Z,5.54
2023-03-24T13:56:26.091Z,5.20
2023-03-24T14:00:25.919Z,5.47
2023-03-24T14:04:25.892Z,5.76
2023-03-24T14:08:25.417Z,5.71
2023-03-24T14:12:25.274Z,5.02
2023-03-24T14:16:26.032Z,5.78
2023-03-24T14:20:25.321Z,5.24
2023-03-24T14:24:25.425Z,4.73
2023-03-24T14:28:25.426Z,5.62
2023-03-24T14:32:25.511Z,6.33
2023-03-24T14:36:26.163Z,8.01
2023-03-24T14:40:29.053Z,8.87
2023-03-24T14:44:24.901Z,8.28
2023-03-24T14:48:24.929Z,9.45
2023-03-24T14:52:24.590Z,9.45
2023-03-24T14:56:24.425Z,9.14
2023-03-24T15:00:24.412Z,9.62
2023-03-24T15:04:24.108Z,9.58
2023-03-24T15:08:24.412Z,8.53
2023-03-24T15:12:23.906Z,8.50
2023-03-24T15:16:23.634Z,7.55
2023-03-24T15:20:24.345Z,6.79
2023-03-24T15:24:23.409Z,6.25
2023-03-24T15:28:23.419Z,6.15
2023-03-24T15:32:23.106Z,6.08
2023-03-24T15:36:23.443Z,5.93
2023-03-24T15:40:22.848Z,4.91
2023-03-24T15:44:22.929Z,4.99
2023-03-24T15:48:22.933Z,5.14
2023-03-24T15:52:22.827Z,4.68
2023-03-24T15:56:22.934Z,4.73
2023-03-24T16:00:22.958Z,4.32
2023-03-24T16:04:22.894Z,4.71
2023-03-24T16:08:22.957Z,3.72
2023-03-24T16:12:23.434Z,4.44
2023-03-24T16:16:23.068Z,4.24
2023-03-24T16:20:23.055Z,4.53
2023-03-24T16:24:23.114Z,4.44
2023-03-24T16:28:23.471Z,4.70
2023-03-24T16:32:23.153Z,4.26
2023-03-24T16:36:23.171Z,4.08
2023-03-24T16:40:23.225Z,4.36
2023-03-24T16:44:23.221Z,3.67
2023-03-24T16:48:23.188Z,4.28
2023-03-24T16:52:23.178Z,4.17
2023-03-24T16:56:23.235Z,4.46
2023-03-24T17:00:23.216Z,4.44
2023-03-24T17:04:23.242Z,4.21
2023-03-24T17:08:23.313Z,4.48
2023-03-24T17:12:23.312Z,4.37
2023-03-24T17:16:23.340Z,4.33
2023-03-24T17:20:23.309Z,3.89
2023-03-24T17:24:23.336Z,4.66
2023-03-24T17:28:23.416Z,4.68
2023-03-24T17:32:23.446Z,4.32
2023-03-24T17:36:23.480Z,4.50
2023-03-24T17:40:23.638Z,4.65
2023-03-24T17:44:23.695Z,4.13
2023-03-24T17:48:23.708Z,4.51
2023-03-24T17:52:23.777Z,4.51
2023-03-24T17:56:23.841Z,4.18
2023-03-24T18:00:23.943Z,4.70
2023-03-24T18:04:24.087Z,4.66
2023-03-24T18:08:24.084Z,4.37
2023-03-24T18:12:24.191Z,4.44
2023-03-24T18:16:24.354Z,4.55
2023-03-24T18:20:24.331Z,4.76
2023-03-24T18:24:24.430Z,4.23
2023-03-24T18:28:24.524Z,3.78
2023-03-24T18:32:24.660Z,4.77
2023-03-24T18:36:24.703Z,4.54
2023-03-24T18:40:24.975Z,4.66
2023-03-24T18:44:24.952Z,3.96
2023-03-24T18:48:25.093Z,3.97
2023-03-24T18:52:25.216Z,3.94
2023-03-24T18:56:25.311Z,3.62
2023-03-24T19:00:25.448Z,3.93
2023-03-24T19:04:25.592Z,4.40
2023-03-24T19:08:25.702Z,4.19
2023-03-24T19:12:25.821Z,3.13
2023-03-24T19:16:26.026Z,4.16
2023-03-24T19:20:26.133Z,4.20
2023-03-24T19:24:26.364Z,4.22
2023-03-24T19:28:26.399Z,4.15
2023-03-24T19:32:26.323Z,4.16
2023-03-24T19:36:26.213Z,4.11
2023-03-24T19:40:26.133Z,4.28
2023-03-24T19:44:25.991Z,3.94
2023-03-24T19:48:25.901Z,3.30
2023-03-24T19:52:25.834Z,3.69
2023-03-24T19:56:25.835Z,3.88
2023-03-24T20:00:26.043Z,4.27
2023-03-24T20:04:25.902Z,4.59
2023-03-24T20:08:25.846Z,3.40
2023-03-24T20:12:25.720Z,3.84
2023-03-24T20:16:25.696Z,3.69
2023-03-24T20:20:25.534Z,3.89
2023-03-24T20:24:25.459Z,3.73
2023-03-24T20:28:25.458Z,3.86
2023-03-24T20:32:25.445Z,4.08
2023-03-24T20:36:25.233Z,3.68
2023-03-24T20:40:25.188Z,3.95
2023-03-24T20:44:25.065Z,4.06
2023-03-24T20:48:24.964Z,4.33
2023-03-24T20:52:24.905Z,4.02
2023-03-24T20:56:24.905Z,3.65
2023-03-24T21:00:24.730Z,3.77
2023-03-24T21:04:24.641Z,3.53
2023-03-24T21:08:24.566Z,3.44
2023-03-24T21:12:24.482Z,3.70
2023-03-24T21:16:24.427Z,3.90
2023-03-24T21:20:24.268Z,3.97
2023-03-24T21:24:24.210Z,3.70
2023-03-24T21:28:24.104Z,3.77
2023-03-24T21:32:23.996Z,3.07
2023-03-24T21:36:23.927Z,3.43
2023-03-24T21:40:23.792Z,3.59
2023-03-24T21:44:23.860Z,3.63
2023-03-24T21:48:23.733Z,3.81
2023-03-24T21:52:23.800Z,3.65
2023-03-24T21:56:23.586Z,3.20
2023-03-24T22:00:23.541Z,3.73
2023-03-24T22:04:23.419Z,3.66
2023-03-24T22:08:23.330Z,3.83
2023-03-24T22:12:23.387Z,3.28
2023-03-24T22:16:23.309Z,3.25
2023-03-24T22:20:23.193Z,4.20
2023-03-24T22:24:23.137Z,2.94
2023-03-24T22:28:23.040Z,3.24
2023-03-24T22:32:22.993Z,3.17
2023-03-24T22:36:22.852Z,3.37
2023-03-24T22:40:23.027Z,3.60
2023-03-24T22:44:22.959Z,3.75
2023-03-24T22:48:22.916Z,3.17
2023-03-24T22:52:22.792Z,3.24
2023-03-24T22:56:22.715Z,3.42
2023-03-24T23:00:22.647Z,3.52
2023-03-24T23:04:22.601Z,3.47
2023-03-24T23:08:22.501Z,3.34
2023-03-24T23:12:22.416Z,3.21
2023-03-24T23:16:22.388Z,3.36
2023-03-24T23:20:22.267Z,3.15
2023-03-24T23:24:22.183Z,3.02
2023-03-24T23:28:22.082Z,2.73
2023-03-24T23:32:22.276Z,3.54
2023-03-24T23:36:22.221Z,2.96
2023-03-24T23:40:21.077Z,2.85
2023-03-24T23:44:22.031Z,3.23
2023-03-24T23:48:21.938Z,3.12
2023-03-24T23:52:21.904Z,3.05
2023-03-24T23:56:21.870Z,2.84
